Time;durP1;ratioP1;P1;durP2;ratioP2;P2;SDS_P1;SDS_P2;PMS_P1;PMS_P2;Temp;Humidity;BMP_temperature;BMP_pressure;BME280_temperature;BME280_humidity;BME280_pressure;Samples;Min_cycle;Max_cycle;Signal;HPM_P1;HPM_P2
2022/05/05 00:00:58;;;;;;;15.30;13.90;;;;;;;11.54;100.00;98262.34;5076468;28;20212;-69
2022/05/05 00:03:25;;;;;;;19.37;17.43;;;;;;;11.54;100.00;98270.34;5076411;28;20213;-69
2022/05/05 00:05:54;;;;;;;19.03;17.17;;;;;;;11.53;100.00;98260.72;5076406;28;20203;-70
2022/05/05 00:08:21;;;;;;;17.70;15.90;;;;;;;11.59;100.00;98263.31;5076723;28;20256;-69
2022/05/05 00:16:14;;;;;;;14.73;13.10;;;;;;;11.71;100.00;98255.44;5055128;28;20200;-69
2022/05/05 00:18:40;;;;;;;14.47;13.00;;;;;;;11.65;100.00;98253.66;5075787;28;20231;-69
2022/05/05 00:21:07;;;;;;;14.80;13.40;;;;;;;11.66;100.00;98248.09;5076152;28;20224;-69
2022/05/05 00:23:33;;;;;;;14.90;13.57;;;;;;;11.62;100.00;98249.59;5076104;28;20205;-69
2022/05/05 00:26:00;;;;;;;16.00;14.40;;;;;;;11.66;100.00;98247.31;5075704;28;20772;-69
2022/05/05 00:28:26;;;;;;;14.80;13.30;;;;;;;11.68;100.00;98250.56;5075607;28;20237;-69
2022/05/05 00:30:53;;;;;;;14.90;13.37;;;;;;;11.69;100.00;98254.84;5075957;28;20578;-70
2022/05/05 00:33:19;;;;;;;20.97;13.33;;;;;;;11.61;100.00;98260.47;5075841;28;20568;-69
2022/05/05 00:35:46;;;;;;;25.80;14.20;;;;;;;11.63;100.00;98250.41;5075542;28;20301;-69
2022/05/05 00:38:13;;;;;;;13.77;12.37;;;;;;;11.58;100.00;98255.56;5075710;28;20316;-69
2022/05/05 00:40:43;;;;;;;17.43;13.43;;;;;;;11.54;100.00;98249.88;5075481;28;20732;-69
2022/05/05 00:43:10;;;;;;;14.93;13.13;;;;;;;11.56;100.00;98252.28;5075736;28;20213;-69
2022/05/05 00:45:37;;;;;;;14.20;12.90;;;;;;;11.57;100.00;98245.94;5075695;28;20620;-69
2022/05/05 00:48:05;;;;;;;14.77;12.97;;;;;;;11.56;100.00;98242.44;5075236;28;20225;-69
2022/05/05 00:50:37;;;;;;;13.60;12.30;;;;;;;11.56;100.00;98231.81;5075484;28;20200;-69
2022/05/05 00:53:05;;;;;;;14.20;12.80;;;;;;;11.53;100.00;98236.75;5075289;28;20269;-69
2022/05/05 00:55:39;;;;;;;14.97;13.57;;;;;;;11.53;100.00;98239.44;5075358;28;20232;-69
2022/05/05 00:58:06;;;;;;;15.73;14.23;;;;;;;11.48;100.00;98241.94;5075050;28;20253;-69
2022/05/05 01:00:33;;;;;;;17.87;15.27;;;;;;;11.43;100.00;98242.59;5075046;28;20215;-69
2022/05/05 01:03:01;;;;;;;16.77;15.07;;;;;;;11.41;100.00;98251.81;5075333;28;20594;-69
2022/05/05 01:05:29;;;;;;;17.20;15.57;;;;;;;11.44;100.00;98249.53;5075280;28;20207;-69
2022/05/05 01:07:59;;;;;;;16.93;15.40;;;;;;;11.43;100.00;98242.59;5075185;28;20228;-69
2022/05/05 01:10:26;;;;;;;17.20;15.67;;;;;;;11.47;100.00;98242.94;5075144;28;20209;-69
2022/05/05 01:12:53;;;;;;;16.60;15.00;;;;;;;11.44;100.00;98244.19;5074809;28;20656;-69
2022/05/05 01:15:20;;;;;;;17.73;16.00;;;;;;;11.52;100.00;98245.78;5075001;28;20225;-69
2022/05/05 01:17:47;;;;;;;17.50;15.80;;;;;;;11.43;100.00;98242.59;5075303;28;20230;-69
2022/05/05 01:20:15;;;;;;;17.87;16.17;;;;;;;11.46;100.00;98247.47;5074925;28;20212;-69
2022/05/05 01:22:41;;;;;;;16.83;15.13;;;;;;;11.46;100.00;98252.81;5074819;28;20214;-70
2022/05/05 01:30:36;;;;;;;22.17;16.67;;;;;;;11.44;100.00;98252.19;5074547;28;20311;-69
2022/05/05 01:33:13;;;;;;;18.87;16.70;;;;;;;11.42;100.00;98262.25;5074334;28;20574;-69
2022/05/05 01:35:40;;;;;;;18.63;16.90;;;;;;;11.47;100.00;98259.75;5074615;28;20209;-69
2022/05/05 01:38:08;;;;;;;18.10;16.20;;;;;;;11.53;100.00;98258.06;5074573;28;20262;-69
2022/05/05 01:40:36;;;;;;;16.70;14.97;;;;;;;11.48;100.00;98264.03;5074252;28;20687;-69
2022/05/05 01:43:04;;;;;;;15.47;14.00;;;;;;;11.47;100.00;98262.41;5074503;28;20209;-69
2022/05/05 01:45:31;;;;;;;14.40;12.87;;;;;;;11.49;100.00;98257.66;5074370;28;20560;-70
2022/05/05 01:47:58;;;;;;;14.90;13.43;;;;;;;11.52;100.00;98267.88;5074395;28;20232;-69
2022/05/05 01:50:25;;;;;;;15.37;13.87;;;;;;;11.49;100.00;98260.31;5074392;28;20209;-69
2022/05/05 01:52:55;;;;;;;13.83;12.43;;;;;;;11.51;100.00;98260.13;5073875;28;20620;-69
2022/05/05 01:55:22;;;;;;;13.07;11.87;;;;;;;11.58;100.00;98256.34;5074219;28;20247;-69
2022/05/05 01:57:48;;;;;;;12.13;10.93;;;;;;;11.58;100.00;98255.56;5073865;28;20236;-69
2022/05/05 02:00:15;;;;;;;12.53;11.40;;;;;;;11.60;100.00;98249.00;5073885;28;20208;-69
2022/05/05 02:02:43;;;;;;;12.80;11.60;;;;;;;11.65;100.00;98259.81;5073671;28;20250;-70
2022/05/05 02:05:10;;;;;;;11.57;10.47;;;;;;;11.59;100.00;98258.00;5073805;28;20668;-69
2022/05/05 02:07:37;;;;;;;11.63;10.20;;;;;;;11.54;100.00;98257.84;5074028;28;20222;-69
2022/05/05 02:10:09;;;;;;;12.43;10.60;;;;;;;11.46;100.00;98260.78;5073728;28;20300;-69
2022/05/05 02:12:36;;;;;;;11.37;10.17;;;;;;;11.32;100.00;98260.06;5074052;28;20193;-69
2022/05/05 02:15:08;;;;;;;11.90;10.73;;;;;;;11.35;100.00;98255.38;5073568;28;20228;-70
2022/05/05 02:17:35;;;;;;;11.37;10.27;;;;;;;11.37;100.00;98261.28;5073816;28;20226;-69
2022/05/05 02:20:02;;;;;;;11.83;10.73;;;;;;;11.26;100.00;98251.34;5073914;28;20216;-69
2022/05/05 02:22:28;;;;;;;12.67;10.17;;;;;;;11.26;100.00;98262.00;5073541;28;20217;-69
2022/05/05 02:24:55;;;;;;;12.00;10.60;;;;;;;11.27;100.00;98259.13;5073867;28;20540;-69
2022/05/05 02:27:22;;;;;;;12.27;11.07;;;;;;;11.25;100.00;98266.50;5073718;28;20225;-69
2022/05/05 02:29:49;;;;;;;11.67;10.67;;;;;;;11.19;100.00;98262.06;5073679;28;20206;-69
2022/05/05 02:32:17;;;;;;;12.00;10.80;;;;;;;11.17;100.00;98263.31;5073421;28;20620;-69
2022/05/05 02:34:44;;;;;;;11.30;10.30;;;;;;;11.17;100.00;98266.75;5073569;28;20251;-69
2022/05/05 02:39:55;;;;;;;11.60;10.43;;;;;;;11.05;100.00;98260.53;5073465;28;20173;-69
2022/05/05 02:42:22;;;;;;;10.83;9.70;;;;;;;10.98;100.00;98262.41;5073323;28;20212;-69
2022/05/05 02:44:48;;;;;;;12.50;10.33;;;;;;;10.93;100.00;98256.94;5073600;28;20207;-69
2022/05/05 02:47:15;;;;;;;12.87;11.67;;;;;;;10.90;100.00;98268.00;5073497;28;20247;-69
2022/05/05 02:49:42;;;;;;;13.53;11.57;;;;;;;10.87;100.00;98260.47;5073575;28;20211;-69
2022/05/05 02:52:10;;;;;;;12.53;11.43;;;;;;;10.80;100.00;98267.66;5073100;28;20220;-69
2022/05/05 02:54:47;;;;;;;13.60;12.30;;;;;;;10.79;100.00;98266.88;5073463;28;20213;-69
2022/05/05 02:57:15;;;;;;;13.93;12.60;;;;;;;10.77;100.00;98270.78;5073129;28;20322;-69
2022/05/05 02:59:42;;;;;;;13.07;11.77;;;;;;;10.77;100.00;98268.13;5073428;28;20204;-69
2022/05/05 03:02:09;;;;;;;13.80;12.50;;;;;;;10.68;100.00;98270.19;5073130;28;20212;-69
2022/05/05 03:04:35;;;;;;;12.63;11.50;;;;;;;10.65;100.00;98264.50;5073081;28;20211;-69
2022/05/05 03:07:02;;;;;;;15.03;13.50;;;;;;;10.69;100.00;98268.38;5073036;28;20201;-69
2022/05/05 03:09:28;;;;;;;15.57;14.03;;;;;;;10.66;100.00;98263.47;5073351;28;20204;-69
2022/05/05 03:11:55;;;;;;;15.23;13.90;;;;;;;10.69;100.00;98266.50;5073494;28;20291;-69
2022/05/05 03:14:21;;;;;;;15.73;14.33;;;;;;;10.66;100.00;98266.13;5074174;28;20231;-69
2022/05/05 03:16:47;;;;;;;14.67;13.47;;;;;;;10.63;100.00;98261.22;5076853;28;20204;-69
2022/05/05 03:19:14;;;;;;;16.43;14.00;;;;;;;10.63;100.00;98263.88;5076729;28;20670;-69
2022/05/05 03:21:40;;;;;;;15.43;13.93;;;;;;;10.63;100.00;98269.19;5077557;28;20211;-69
2022/05/05 03:24:07;;;;;;;15.97;14.57;;;;;;;10.61;100.00;98269.44;5077150;28;20208;-70
2022/05/05 03:26:33;;;;;;;16.37;14.67;;;;;;;10.64;100.00;98269.00;5076634;28;20218;-69
2022/05/05 03:29:00;;;;;;;16.53;14.87;;;;;;;10.62;100.00;98273.72;5076599;28;20228;-69
2022/05/05 03:31:26;;;;;;;17.30;15.77;;;;;;;10.60;100.00;98270.44;5076695;28;20549;-69
2022/05/05 03:33:53;;;;;;;18.13;16.13;;;;;;;10.63;100.00;98271.84;5076487;28;20580;-69
2022/05/05 03:36:19;;;;;;;19.10;16.30;;;;;;;10.65;100.00;98270.63;5076857;28;20208;-69
2022/05/05 03:38:46;;;;;;;15.37;13.97;;;;;;;10.61;100.00;98269.44;5076409;28;20715;-69
2022/05/05 03:41:12;;;;;;;18.40;15.93;;;;;;;10.61;100.00;98272.09;5076707;28;20227;-69
2022/05/05 03:43:38;;;;;;;18.37;15.20;;;;;;;10.63;100.00;98271.84;5076623;28;20212;-69
2022/05/05 03:46:05;;;;;;;18.63;16.73;;;;;;;10.70;100.00;98281.44;5076640;28;20196;-69
2022/05/05 03:48:34;;;;;;;18.67;16.50;;;;;;;10.73;100.00;98283.66;5076247;28;20703;-69
2022/05/05 03:51:01;;;;;;;20.63;17.27;;;;;;;10.68;100.00;98280.03;5076244;28;20204;-69
2022/05/05 03:53:28;;;;;;;19.63;17.63;;;;;;;10.76;100.00;98285.91;5076177;28;20655;-69
2022/05/05 03:55:54;;;;;;;18.93;17.13;;;;;;;10.73;100.00;98283.66;5076052;28;20596;-69
2022/05/05 03:58:20;;;;;;;19.03;17.17;;;;;;;10.80;100.00;98286.28;5076488;28;20588;-69
2022/05/05 04:00:47;;;;;;;19.60;17.70;;;;;;;10.81;100.00;98290.56;5076457;28;20205;-69
2022/05/05 04:03:31;;;;;;;19.27;17.37;;;;;;;10.86;100.00;98280.91;5076341;28;20201;-69
2022/05/05 04:06:05;;;;;;;18.73;16.40;;;;;;;10.87;100.00;98287.06;5076429;28;20198;-69
2022/05/05 04:08:33;;;;;;;19.40;17.40;;;;;;;10.91;100.00;98278.41;5076359;28;20543;-69
2022/05/05 04:11:00;;;;;;;18.37;16.70;;;;;;;10.94;100.00;98282.50;5076251;28;20211;-69
2022/05/05 04:13:27;;;;;;;18.70;16.90;;;;;;;10.96;100.00;98293.75;5076029;28;20208;-69
2022/05/05 04:15:54;;;;;;;18.50;16.80;;;;;;;10.98;100.00;98290.88;5076408;28;20231;-69
2022/05/05 04:18:21;;;;;;;18.07;16.27;;;;;;;11.00;100.00;98295.75;5075868;28;20224;-69
2022/05/05 04:20:48;;;;;;;18.60;15.63;;;;;;;10.97;100.00;98298.03;5075954;28;20205;-69
2022/05/05 04:23:15;;;;;;;18.20;16.40;;;;;;;10.98;100.00;98303.16;5075477;28;20269;-69
2022/05/05 04:25:42;;;;;;;16.17;14.67;;;;;;;11.03;100.00;98305.16;5075145;28;20204;-69
2022/05/05 04:28:10;;;;;;;18.13;16.23;;;;;;;11.06;100.00;98299.41;5075858;28;20224;-69
2022/05/05 04:30:37;;;;;;;16.47;14.83;;;;;;;11.07;100.00;98315.16;5075868;28;20209;-69
2022/05/05 04:33:03;;;;;;;17.33;15.23;;;;;;;11.08;100.00;98313.28;5075493;28;20204;-69
2022/05/05 04:35:31;;;;;;;17.97;16.23;;;;;;;11.05;100.00;98319.84;5075360;28;20220;-69
2022/05/05 04:37:59;;;;;;;18.83;17.13;;;;;;;11.04;100.00;98322.75;5075340;28;20232;-72
2022/05/05 04:40:25;;;;;;;18.50;16.87;;;;;;;11.10;100.00;98327.22;5075516;28;20206;-72
2022/05/05 04:42:51;;;;;;;18.50;16.80;;;;;;;11.10;100.00;98321.91;5075205;28;20204;-69
2022/05/05 04:45:18;;;;;;;19.33;17.33;;;;;;;11.14;100.00;98328.41;5075235;28;20594;-69
2022/05/05 04:47:44;;;;;;;19.27;17.40;;;;;;;11.14;100.00;98329.22;5075296;28;20229;-69
2022/05/05 04:50:11;;;;;;;18.80;16.90;;;;;;;11.17;100.00;98330.63;5075356;28;20205;-69
2022/05/05 04:52:37;;;;;;;17.97;16.17;;;;;;;11.15;100.00;98330.03;5074659;28;20567;-69
2022/05/05 04:55:04;;;;;;;17.63;16.03;;;;;;;11.12;100.00;98325.13;5074961;28;20232;-69
2022/05/05 04:57:30;;;;;;;18.07;16.27;;;;;;;11.11;100.00;98320.84;5074989;28;20595;-71
2022/05/05 04:59:57;;;;;;;17.80;15.87;;;;;;;11.13;100.00;98322.28;5075211;28;20208;-69
2022/05/05 05:02:23;;;;;;;17.87;16.07;;;;;;;11.15;100.00;98327.38;5074574;28;20215;-69
2022/05/05 05:04:49;;;;;;;18.63;16.73;;;;;;;11.09;100.00;98326.38;5074697;28;20208;-69
2022/05/05 05:07:16;;;;;;;18.90;16.93;;;;;;;11.13;100.00;98327.59;5074742;28;20236;-69
2022/05/05 05:09:42;;;;;;;18.57;16.70;;;;;;;11.15;100.00;98330.03;5074755;28;20201;-69
2022/05/05 05:12:09;;;;;;;18.70;16.80;;;;;;;11.16;100.00;98315.69;5074892;28;20573;-69
2022/05/05 05:14:35;;;;;;;17.47;15.50;;;;;;;11.20;100.00;98327.53;5074687;28;20231;-70
2022/05/05 05:17:02;;;;;;;17.30;15.57;;;;;;;11.25;100.00;98327.72;5074567;28;20205;-69
2022/05/05 05:19:28;;;;;;;17.63;15.93;;;;;;;11.33;100.00;98340.75;5074636;28;20209;-69
2022/05/05 05:21:54;;;;;;;18.27;16.57;;;;;;;11.34;100.00;98334.41;5074313;28;20215;-69
2022/05/05 05:24:21;;;;;;;17.83;16.13;;;;;;;11.44;100.00;98329.38;5074465;28;20204;-69
2022/05/05 05:26:47;;;;;;;16.97;15.37;;;;;;;11.44;100.00;98337.38;5073831;28;20212;-69
2022/05/05 05:29:13;;;;;;;18.33;16.70;;;;;;;11.55;100.00;98328.69;5074434;28;20206;-69
2022/05/05 05:31:40;;;;;;;17.00;15.30;;;;;;;11.57;100.00;98345.25;5073814;28;20217;-69
2022/05/05 05:34:06;;;;;;;17.53;15.93;;;;;;;11.58;100.00;98349.53;5073900;28;20216;-69
2022/05/05 05:36:33;;;;;;;18.60;15.83;;;;;;;11.58;100.00;98357.53;5073232;28;20282;-69
2022/05/05 05:38:59;;;;;;;18.77;17.03;;;;;;;11.63;100.00;98357.75;5073709;28;20234;-69
2022/05/05 05:41:25;;;;;;;19.20;15.53;;;;;;;11.65;100.00;98355.69;5074182;28;20203;-69
2022/05/05 05:43:52;;;;;;;17.97;16.13;;;;;;;11.63;100.00;98348.94;5074022;28;20222;-69
2022/05/05 05:46:18;;;;;;;17.23;15.33;;;;;;;11.69;100.00;98350.72;5073742;28;20661;-69
2022/05/05 05:48:45;;;;;;;18.60;16.13;;;;;;;11.73;100.00;98350.06;5073611;28;20366;-69
2022/05/05 05:51:11;;;;;;;17.83;16.23;;;;;;;11.76;100.00;98344.28;5073931;28;20204;-69
2022/05/05 05:53:37;;;;;;;17.43;15.83;;;;;;;11.74;100.00;98346.38;5073499;28;20302;-69
2022/05/05 05:56:04;;;;;;;18.30;16.50;;;;;;;11.77;100.00;98350.44;5073319;28;20309;-69
2022/05/05 05:58:30;;;;;;;17.40;15.60;;;;;;;11.82;100.00;98346.09;5073321;28;20238;-69
2022/05/05 06:00:57;;;;;;;17.07;15.43;;;;;;;11.86;100.00;98352.63;5073330;28;20694;-69
2022/05/05 06:06:07;;;;;;;17.63;15.50;;;;;;;11.99;100.00;98360.50;5073905;28;20175;-70
2022/05/05 06:08:34;;;;;;;17.00;15.30;;;;;;;12.00;100.00;98363.94;5073317;28;20227;-69
2022/05/05 06:11:00;;;;;;;16.77;14.83;;;;;;;12.04;100.00;98363.31;5073507;28;20207;-72
2022/05/05 06:13:26;;;;;;;18.73;15.70;;;;;;;12.13;100.00;98367.31;5073694;28;20575;-70
2022/05/05 06:15:53;;;;;;;17.00;15.33;;;;;;;12.22;100.00;98365.16;5073428;28;20222;-70
2022/05/05 06:18:20;;;;;;;17.37;15.67;;;;;;;12.23;100.00;98372.13;5073486;28;20227;-73
2022/05/05 06:20:46;;;;;;;15.93;14.37;;;;;;;12.31;100.00;98372.66;5073597;28;20211;-71
2022/05/05 06:23:12;;;;;;;17.73;15.27;;;;;;;12.31;100.00;98372.66;5073155;28;20697;-69
2022/05/05 06:25:40;;;;;;;16.17;14.57;;;;;;;12.45;100.00;98383.97;5072865;28;20204;-68
2022/05/05 06:28:06;;;;;;;16.00;14.50;;;;;;;12.40;100.00;98383.81;5057893;28;20217;-69
2022/05/05 06:30:33;;;;;;;16.37;14.10;;;;;;;12.40;100.00;98384.66;5055520;28;20203;-68
2022/05/05 06:32:59;;;;;;;15.53;13.73;;;;;;;12.32;100.00;98387.59;5052802;28;20238;-68
2022/05/05 06:35:25;;;;;;;16.80;15.20;;;;;;;12.31;100.00;98387.81;5052984;28;20235;-68
2022/05/05 06:37:52;;;;;;;17.47;15.57;;;;;;;12.24;100.00;98397.72;5053157;28;20233;-68
2022/05/05 06:40:18;;;;;;;17.60;16.00;;;;;;;12.33;100.00;98391.91;5053268;28;20309;-68
2022/05/05 06:42:45;;;;;;;19.80;16.10;;;;;;;12.32;100.00;98395.59;5053005;28;20208;-68
2022/05/05 06:45:11;;;;;;;16.43;14.73;;;;;;;12.50;99.33;98397.44;5053054;28;20201;-68
2022/05/05 06:47:38;;;;;;;12.97;11.60;;;;;;;12.47;97.94;98400.56;5052754;28;20365;-68
2022/05/05 06:50:05;;;;;;;15.33;11.23;;;;;;;12.63;97.71;98395.47;5052667;28;20211;-69
2022/05/05 06:52:31;;;;;;;11.10;10.13;;;;;;;12.70;93.29;98401.50;5053314;28;20226;-69
2022/05/05 06:54:57;;;;;;;10.20;9.37;;;;;;;12.62;92.76;98404.47;5052842;28;20213;-69
2022/05/05 06:57:24;;;;;;;10.17;9.27;;;;;;;12.54;94.88;98406.63;5053649;28;20227;-69
2022/05/05 06:59:50;;;;;;;10.27;9.27;;;;;;;12.58;95.28;98414.00;5052615;28;20285;-69
2022/05/05 07:02:17;;;;;;;11.27;10.30;;;;;;;12.57;95.46;98415.00;5052900;28;20207;-69
2022/05/05 07:07:27;;;;;;;11.23;10.13;;;;;;;12.57;95.60;98416.88;5052645;28;20290;-69
2022/05/05 07:12:42;;;;;;;11.60;10.50;;;;;;;12.58;93.91;98430.00;5037026;28;20560;-69
2022/05/05 07:15:09;;;;;;;11.60;10.40;;;;;;;12.84;94.02;98420.84;5052351;28;20213;-69
2022/05/05 07:17:35;;;;;;;10.97;9.93;;;;;;;12.77;95.28;98423.59;5060071;28;20222;-68
2022/05/05 07:20:01;;;;;;;10.83;9.93;;;;;;;12.85;95.32;98431.28;5072570;28;20685;-69
2022/05/05 07:22:28;;;;;;;9.33;8.53;;;;;;;13.05;91.43;98437.22;5072864;28;20209;-69
2022/05/05 07:24:54;;;;;;;10.17;9.17;;;;;;;12.83;92.83;98436.03;5072663;28;20201;-69
2022/05/05 07:27:21;;;;;;;10.10;9.10;;;;;;;12.80;95.60;98428.47;5072416;28;20311;-70
2022/05/05 07:29:47;;;;;;;11.37;10.40;;;;;;;12.92;96.70;98426.69;5072816;28;20214;-69
2022/05/05 07:32:13;;;;;;;11.50;10.13;;;;;;;13.12;95.29;98427.28;5072869;28;20210;-70
2022/05/05 07:34:40;;;;;;;10.10;9.20;;;;;;;13.07;92.57;98431.69;5072595;28;20286;-69
2022/05/05 07:37:06;;;;;;;9.67;8.90;;;;;;;13.06;93.81;98433.50;5071971;28;20724;-69
2022/05/05 07:39:33;;;;;;;10.23;9.33;;;;;;;13.30;92.77;98429.91;5072712;28;20212;-70
2022/05/05 07:41:59;;;;;;;10.73;9.70;;;;;;;13.44;94.64;98434.03;5072751;28;20234;-70
2022/05/05 07:44:26;;;;;;;11.93;9.63;;;;;;;13.40;92.12;98435.53;5072360;28;20570;-69
2022/05/05 07:46:52;;;;;;;12.27;10.10;;;;;;;13.44;92.81;98436.72;5072592;28;20196;-70
2022/05/05 07:49:19;;;;;;;10.40;9.10;;;;;;;13.30;91.33;98431.75;5072175;28;20693;-69
2022/05/05 07:51:46;;;;;;;10.30;9.40;;;;;;;13.60;90.36;98432.53;5072445;28;20273;-69
2022/05/05 07:56:56;;;;;;;13.87;11.13;;;;;;;13.33;96.29;98432.13;5072343;28;20304;-69
2022/05/05 07:59:22;;;;;;;11.90;10.70;;;;;;;13.48;89.12;98432.50;5072702;28;20226;-69
2022/05/05 08:01:48;;;;;;;11.60;10.67;;;;;;;13.33;91.50;98440.13;5075664;28;20659;-69
2022/05/05 08:04:15;;;;;;;12.03;10.93;;;;;;;13.44;93.17;98438.53;5075889;28;20299;-70
2022/05/05 08:06:41;;;;;;;12.57;11.27;;;;;;;13.27;89.93;98443.72;5076561;28;20212;-69
2022/05/05 08:09:08;;;;;;;12.17;11.07;;;;;;;13.47;91.82;98444.25;5076342;28;20220;-69
2022/05/05 08:11:37;;;;;;;12.93;11.73;;;;;;;13.17;89.05;98450.63;5076166;28;20207;-68
2022/05/05 08:14:04;;;;;;;14.90;11.87;;;;;;;13.08;90.58;98451.97;5075958;28;20204;-70
2022/05/05 08:16:31;;;;;;;14.03;12.63;;;;;;;13.42;88.48;98448.63;5075539;28;20760;-70
2022/05/05 08:18:57;;;;;;;12.60;11.40;;;;;;;13.32;90.58;98454.53;5075748;28;20231;-69
2022/05/05 08:21:24;;;;;;;13.37;12.17;;;;;;;13.43;87.33;98458.28;5075635;28;20671;-69
2022/05/05 08:28:27;;;;;;;13.53;12.13;;;;;;;13.17;90.74;98462.13;5075497;28;20207;-69
2022/05/05 08:29:21;;;;;;;13.27;12.07;;;;;;;13.23;91.96;98455.88;5075307;28;20556;-69
2022/05/05 08:31:47;;;;;;;14.20;12.80;;;;;;;13.38;89.44;98458.16;5076515;28;20208;-69
2022/05/05 08:34:14;;;;;;;13.97;12.47;;;;;;;13.74;87.40;98468.72;5075493;28;20211;-68
2022/05/05 08:36:40;;;;;;;13.60;12.40;;;;;;;13.80;86.42;98473.16;5075451;28;20228;-69
2022/05/05 08:39:06;;;;;;;15.70;12.83;;;;;;;13.58;87.45;98475.53;5075340;28;20651;-69
2022/05/05 08:41:33;;;;;;;14.13;12.63;;;;;;;13.71;88.14;98475.31;5074859;28;20539;-69
2022/05/05 08:44:00;;;;;;;14.73;12.80;;;;;;;13.66;88.14;98477.06;5074923;28;20674;-69
2022/05/05 08:46:28;;;;;;;14.37;13.07;;;;;;;14.01;90.32;98475.25;5075306;28;20203;-69
2022/05/05 08:49:04;;;;;;;13.40;12.10;;;;;;;14.34;84.52;98471.03;5075004;28;20238;-69
2022/05/05 08:51:38;;;;;;;13.67;12.37;;;;;;;13.70;87.50;98478.25;5075621;28;20192;-69
2022/05/05 08:54:07;;;;;;;14.90;13.43;;;;;;;13.74;89.39;98474.88;5074949;28;20238;-70
2022/05/05 08:56:33;;;;;;;14.70;13.30;;;;;;;13.76;90.12;98482.66;5075186;28;20224;-70
2022/05/05 08:59:00;;;;;;;13.90;12.67;;;;;;;13.87;88.42;98489.88;5075151;28;20250;-69
2022/05/05 09:01:27;;;;;;;13.83;12.53;;;;;;;14.05;86.07;98493.31;5075115;28;20209;-69
2022/05/05 09:03:53;;;;;;;13.50;12.10;;;;;;;13.90;84.39;98490.25;5074959;28;20204;-69
2022/05/05 09:06:20;;;;;;;15.17;13.77;;;;;;;13.62;85.23;98500.72;5074586;28;20663;-69
2022/05/05 09:08:46;;;;;;;15.70;14.20;;;;;;;13.68;86.72;98491.81;5075278;28;20256;-69
2022/05/05 09:11:18;;;;;;;14.57;13.17;;;;;;;14.07;85.95;98488.53;5074909;28;20216;-69
2022/05/05 09:13:45;;;;;;;14.93;13.20;;;;;;;13.80;86.81;98495.31;5075037;28;20184;-70
2022/05/05 09:16:24;;;;;;;14.33;12.90;;;;;;;14.02;88.91;98488.41;5074847;28;20240;-69
2022/05/05 09:18:51;;;;;;;18.00;13.20;;;;;;;13.93;86.02;98499.69;5074542;28;20278;-69
2022/05/05 09:21:21;;;;;;;15.37;13.87;;;;;;;13.79;85.20;98498.25;5074576;28;20215;-69
2022/05/05 09:26:30;;;;;;;14.40;13.10;;;;;;;13.77;86.56;98497.66;5074760;28;20196;-70
2022/05/05 09:28:57;;;;;;;15.93;14.17;;;;;;;13.85;82.24;98506.16;5074048;28;20258;-69
2022/05/05 09:31:24;;;;;;;14.80;13.33;;;;;;;13.97;82.87;98507.00;5074663;28;20201;-69
2022/05/05 09:33:51;;;;;;;14.03;12.50;;;;;;;14.30;83.85;98511.84;5074136;28;20204;-69
2022/05/05 09:36:28;;;;;;;14.30;12.80;;;;;;;14.34;82.65;98508.47;5074291;28;20298;-69
2022/05/05 09:39:05;;;;;;;14.23;12.80;;;;;;;14.43;81.52;98509.75;5074024;28;20255;-69
2022/05/05 09:41:44;;;;;;;14.73;13.23;;;;;;;14.37;79.54;98509.88;5073090;28;20275;-69
2022/05/05 09:44:21;;;;;;;15.63;14.00;;;;;;;14.27;80.93;98510.44;5074811;28;20188;-70
2022/05/05 09:46:48;;;;;;;15.13;13.67;;;;;;;14.01;81.25;98516.19;5074582;28;20185;-69
2022/05/05 09:49:19;;;;;;;14.50;13.00;;;;;;;14.37;79.84;98512.53;5073884;28;20568;-69
2022/05/05 09:57:44;;;;;;;16.47;14.80;;;;;;;14.56;79.31;98506.84;5072586;28;20584;-69
2022/05/05 10:00:42;;;;;;;17.33;15.47;;;;;;;14.35;81.76;98511.97;5073854;28;20212;-69
2022/05/05 10:05:57;;;;;;;15.93;14.43;;;;;;;14.90;78.51;98521.25;5073912;28;20240;-69
2022/05/05 10:08:34;;;;;;;16.73;15.13;;;;;;;14.98;78.26;98526.25;5073460;28;20231;-70
2022/05/05 10:11:02;;;;;;;16.17;14.77;;;;;;;15.13;77.66;98527.41;5073591;28;20189;-69
2022/05/05 10:13:30;;;;;;;17.57;15.97;;;;;;;14.96;78.48;98523.81;5073287;28;20211;-70
2022/05/05 10:15:59;;;;;;;16.57;15.00;;;;;;;15.28;74.70;98519.66;5073671;28;20232;-69
2022/05/05 10:18:26;;;;;;;16.73;15.10;;;;;;;15.44;74.82;98516.28;5073708;28;20224;-69
2022/05/05 10:20:53;;;;;;;17.40;16.00;;;;;;;15.46;78.59;98516.84;5073747;28;20208;-69
2022/05/05 10:23:44;;;;;;;16.50;14.93;;;;;;;15.28;77.12;98519.66;5073374;28;20208;-69
2022/05/05 10:26:11;;;;;;;17.27;15.23;;;;;;;15.36;75.02;98515.81;5063561;28;20287;-70
2022/05/05 10:28:40;;;;;;;16.93;15.13;;;;;;;15.11;78.99;98516.09;5073547;28;20228;-70
2022/05/05 10:31:35;;;;;;;15.73;14.43;;;;;;;15.05;78.73;98510.88;5066954;28;20219;-70
2022/05/05 10:34:06;;;;;;;16.83;15.20;;;;;;;14.98;78.58;98510.19;5065567;28;20258;-70
2022/05/05 10:36:34;;;;;;;16.37;14.53;;;;;;;15.09;78.76;98507.50;5073392;28;20247;-70
2022/05/05 10:39:19;;;;;;;16.97;15.27;;;;;;;14.80;80.77;98511.16;5073133;28;20231;-70
2022/05/05 10:41:46;;;;;;;16.17;14.67;;;;;;;14.68;78.80;98510.34;5073065;28;20203;-70
2022/05/05 10:44:19;;;;;;;17.77;15.93;;;;;;;14.74;78.05;98512.06;5072984;28;20266;-70
2022/05/05 10:46:51;;;;;;;18.60;16.77;;;;;;;14.89;79.65;98501.72;5072929;28;20621;-70
2022/05/05 10:49:32;;;;;;;20.07;16.77;;;;;;;14.88;77.26;98513.44;5073162;28;20201;-69
2022/05/05 10:52:29;;;;;;;17.23;15.53;;;;;;;15.08;79.74;98516.59;5072774;28;20215;-70
2022/05/05 10:54:56;;;;;;;18.93;16.53;;;;;;;14.82;76.31;98505.53;5071906;28;20205;-70
2022/05/05 10:57:25;;;;;;;17.50;15.80;;;;;;;15.03;79.08;98510.28;5072775;28;20232;-70
2022/05/05 11:00:08;;;;;;;17.33;15.53;;;;;;;15.23;77.97;98503.50;5073373;28;20201;-69
2022/05/05 11:02:36;;;;;;;17.10;15.40;;;;;;;15.14;75.87;98510.28;5073143;28;20208;-69
2022/05/05 11:05:21;;;;;;;17.73;15.37;;;;;;;15.27;77.62;98507.31;5072724;28;20571;-70
2022/05/05 11:07:49;;;;;;;17.33;15.83;;;;;;;14.92;76.60;98509.25;5072414;28;20220;-69
2022/05/05 11:10:43;;;;;;;17.50;15.97;;;;;;;15.34;75.46;98515.25;5073112;28;20208;-69
2022/05/05 11:13:37;;;;;;;18.30;16.00;;;;;;;15.21;79.37;98507.47;5073021;28;20207;-68
2022/05/05 11:22:24;;;;;;;18.17;15.73;;;;;;;14.67;80.50;98510.56;5073080;28;20176;-70
2022/05/05 11:24:52;;;;;;;20.77;18.43;;;;;;;14.55;83.38;98510.56;5072936;28;20208;-69
2022/05/05 11:27:26;;;;;;;19.97;17.87;;;;;;;14.53;83.03;98503.84;5072389;28;20725;-69
2022/05/05 11:29:57;;;;;;;19.57;17.63;;;;;;;14.59;85.69;98506.41;5072660;28;20215;-70
2022/05/05 11:32:33;;;;;;;20.87;18.93;;;;;;;14.43;86.36;98507.06;5072959;28;20207;-69
2022/05/05 11:35:01;;;;;;;21.53;19.37;;;;;;;14.22;85.79;98515.69;5073385;28;20203;-69
2022/05/05 11:37:32;;;;;;;20.50;18.70;;;;;;;14.31;86.01;98503.59;5076277;28;20232;-69
2022/05/05 11:40:02;;;;;;;21.77;19.63;;;;;;;14.20;90.25;98509.75;5076604;28;20220;-69
2022/05/05 11:42:29;;;;;;;23.00;20.60;;;;;;;14.12;87.61;98506.56;5076583;28;20223;-70
2022/05/05 11:44:54;;;;;;;24.10;21.60;;;;;;;14.05;91.01;98511.19;5076307;28;20216;-70
2022/05/05 11:47:22;;;;;;;23.63;21.57;;;;;;;14.11;89.35;98504.94;5076464;28;20224;-69
2022/05/05 11:49:52;;;;;;;25.13;22.73;;;;;;;14.06;89.25;98505.63;5076492;28;20207;-69
2022/05/05 11:52:23;;;;;;;26.93;24.40;;;;;;;13.94;92.97;98501.31;5076370;28;20220;-70
2022/05/05 11:54:55;;;;;;;25.03;22.70;;;;;;;13.79;88.61;98500.94;5076552;28;20193;-70
2022/05/05 11:57:51;;;;;;;26.30;23.60;;;;;;;13.73;92.82;98491.94;5076738;28;20228;-70
2022/05/05 12:03:02;;;;;;;27.97;25.30;;;;;;;13.58;93.71;98496.91;5076166;28;20168;-70
2022/05/05 12:05:29;;;;;;;30.03;27.00;;;;;;;13.83;93.58;98483.38;5076849;28;20208;-70
2022/05/05 12:07:56;;;;;;;32.33;28.93;;;;;;;13.91;97.74;98491.06;5075751;28;20740;-70